createdAt,value
2022-10-29T00:00:13.928Z,3.30
2022-10-29T00:02:41.967Z,2.43
2022-10-29T00:05:10.265Z,3.87
2022-10-29T00:07:38.241Z,3.50
2022-10-29T00:10:06.780Z,4.17
2022-10-29T00:12:36.423Z,3.67
2022-10-29T00:15:04.556Z,2.57
2022-10-29T00:17:32.828Z,2.30
2022-10-29T00:20:00.503Z,3.40
2022-10-29T00:22:28.230Z,2.00
2022-10-29T00:24:55.863Z,2.60
2022-10-29T00:27:23.831Z,4.40
2022-10-29T00:29:52.998Z,2.43
2022-10-29T00:32:21.172Z,3.93
2022-10-29T00:34:49.056Z,3.60
2022-10-29T00:37:17.170Z,3.00
2022-10-29T00:39:44.825Z,2.57
2022-10-29T00:42:16.624Z,2.93
2022-10-29T00:44:44.596Z,2.93
2022-10-29T00:47:21.744Z,1.70
2022-10-29T00:49:52.230Z,1.73
2022-10-29T00:52:22.613Z,3.27
2022-10-29T00:54:51.426Z,2.73
2022-10-29T00:57:23.596Z,2.87
2022-10-29T00:59:51.781Z,2.43
2022-10-29T01:02:22.497Z,3.07
2022-10-29T01:04:51.724Z,2.80
2022-10-29T01:07:20.503Z,2.37
2022-10-29T01:09:48.496Z,2.73
2022-10-29T01:12:33.632Z,3.07
2022-10-29T01:15:10.551Z,2.70
2022-10-29T01:17:53.931Z,2.37
2022-10-29T01:21:00.204Z,2.00
2022-10-29T01:23:55.951Z,2.30
2022-10-29T01:26:49.016Z,2.10
2022-10-29T01:29:35.249Z,2.10
2022-10-29T01:32:10.036Z,1.77
2022-10-29T01:34:43.353Z,2.13
2022-10-29T01:37:21.788Z,1.97
2022-10-29T01:39:57.904Z,2.60
2022-10-29T01:42:33.009Z,1.80
2022-10-29T01:45:09.022Z,1.53
2022-10-29T01:47:42.900Z,2.50
2022-10-29T01:50:15.311Z,2.23
2022-10-29T01:52:44.505Z,2.10
2022-10-29T01:55:12.205Z,2.80
2022-10-29T01:57:40.465Z,2.00
2022-10-29T02:00:11.795Z,2.87
2022-10-29T02:02:56.250Z,2.10
2022-10-29T02:05:32.762Z,1.67
2022-10-29T02:08:07.903Z,1.77
2022-10-29T02:10:41.801Z,2.43
2022-10-29T02:13:14.162Z,3.40
2022-10-29T02:15:47.694Z,1.80
2022-10-29T02:18:17.931Z,3.50
2022-10-29T02:20:47.166Z,2.10
2022-10-29T02:23:17.035Z,1.73
2022-10-29T02:25:44.870Z,1.70
2022-10-29T02:28:13.491Z,2.00
2022-10-29T02:30:41.170Z,3.67
2022-10-29T02:33:09.168Z,2.13
2022-10-29T02:35:38.132Z,4.13
2022-10-29T02:38:06.052Z,2.97
2022-10-29T02:40:33.684Z,3.13
2022-10-29T02:43:01.628Z,2.40
2022-10-29T02:45:29.258Z,2.13
2022-10-29T02:47:57.797Z,2.93
2022-10-29T02:50:25.719Z,2.70
2022-10-29T02:52:55.311Z,2.30
2022-10-29T02:55:23.087Z,4.20
2022-10-29T02:57:51.044Z,2.03
2022-10-29T03:00:19.473Z,1.60
2022-10-29T03:02:47.575Z,4.20
2022-10-29T03:05:15.443Z,1.77
2022-10-29T03:07:43.654Z,3.37
2022-10-29T03:10:12.731Z,2.00
2022-10-29T03:12:41.175Z,2.20
2022-10-29T03:15:09.745Z,2.30
2022-10-29T03:17:37.383Z,1.77
2022-10-29T03:20:05.971Z,2.30
2022-10-29T03:22:34.037Z,2.10
2022-10-29T03:25:01.674Z,2.27
2022-10-29T03:27:31.380Z,2.87
2022-10-29T03:29:59.019Z,3.03
2022-10-29T03:32:27.254Z,2.40
2022-10-29T03:34:57.542Z,2.43
2022-10-29T03:37:27.966Z,3.33
2022-10-29T03:39:55.625Z,3.50
2022-10-29T03:42:24.024Z,2.37
2022-10-29T03:44:53.005Z,2.53
2022-10-29T03:47:21.071Z,2.20
2022-10-29T03:49:48.687Z,3.77
2022-10-29T03:52:16.955Z,2.87
2022-10-29T03:54:44.657Z,2.17
2022-10-29T03:57:12.756Z,2.63
2022-10-29T03:59:40.408Z,4.17
2022-10-29T04:02:10.147Z,1.40
2022-10-29T04:04:38.227Z,3.43
2022-10-29T04:07:06.091Z,2.13
2022-10-29T04:09:34.186Z,3.80
2022-10-29T04:12:02.017Z,2.00
2022-10-29T04:14:30.312Z,1.83
2022-10-29T04:16:59.318Z,2.50
2022-10-29T04:19:28.622Z,3.20
2022-10-29T04:24:48.564Z,4.67
2022-10-29T04:30:20.680Z,2.97
2022-10-29T04:32:48.713Z,3.50
2022-10-29T04:35:18.051Z,1.93
2022-10-29T04:37:46.366Z,2.50
2022-10-29T04:40:14.011Z,2.07
2022-10-29T04:42:42.572Z,1.67
2022-10-29T04:45:10.924Z,2.03
2022-10-29T04:47:38.586Z,4.63
2022-10-29T04:50:06.689Z,2.43
2022-10-29T04:52:35.993Z,3.57
2022-10-29T04:55:03.809Z,1.73
2022-10-29T04:57:32.010Z,1.77
2022-10-29T04:59:59.646Z,1.30
2022-10-29T05:02:27.560Z,2.03
2022-10-29T05:04:55.185Z,2.63
2022-10-29T05:07:22.893Z,2.60
2022-10-29T05:09:51.877Z,2.07
2022-10-29T05:12:19.547Z,1.67
2022-10-29T05:14:47.297Z,2.40
2022-10-29T05:17:14.968Z,2.77
2022-10-29T05:19:42.592Z,4.00
2022-10-29T05:22:11.294Z,3.47
2022-10-29T05:24:38.950Z,2.60
2022-10-29T05:27:09.233Z,2.13
2022-10-29T05:29:36.926Z,4.50
2022-10-29T05:32:04.900Z,4.37
2022-10-29T05:34:32.708Z,2.60
2022-10-29T05:37:00.345Z,6.27
2022-10-29T05:39:28.507Z,3.90
2022-10-29T05:41:56.145Z,2.30
2022-10-29T05:44:25.708Z,2.57
2022-10-29T05:46:53.346Z,3.00
2022-10-29T05:49:21.234Z,4.03
2022-10-29T05:51:48.893Z,2.70
2022-10-29T05:54:16.524Z,2.33
2022-10-29T05:56:44.151Z,2.40
2022-10-29T05:59:12.439Z,2.63
2022-10-29T06:01:41.523Z,3.13
2022-10-29T06:04:09.690Z,2.70
2022-10-29T06:06:38.008Z,2.07
2022-10-29T06:09:06.229Z,1.73
2022-10-29T06:11:34.062Z,1.53
2022-10-29T06:14:02.222Z,2.63
2022-10-29T06:16:29.861Z,2.63
2022-10-29T06:18:59.554Z,2.57
2022-10-29T06:21:27.227Z,3.60
2022-10-29T06:23:55.780Z,2.40
2022-10-29T06:26:23.560Z,1.87
2022-10-29T06:28:52.168Z,1.37
2022-10-29T06:31:19.816Z,1.63
2022-10-29T06:33:47.473Z,2.07
2022-10-29T06:36:16.444Z,2.63
2022-10-29T06:38:44.334Z,2.00
2022-10-29T06:41:11.981Z,2.00
2022-10-29T06:43:40.439Z,2.20
2022-10-29T06:46:08.649Z,2.03
2022-10-29T06:48:36.782Z,2.03
2022-10-29T06:51:04.517Z,2.47
2022-10-29T06:53:33.684Z,2.33
2022-10-29T06:56:01.339Z,2.37
2022-10-29T06:58:29.320Z,1.47
2022-10-29T07:03:25.830Z,2.50
2022-10-29T07:05:57.199Z,4.63
2022-10-29T07:08:25.283Z,3.83
2022-10-29T07:10:55.302Z,2.70
2022-10-29T07:13:23.342Z,2.63
2022-10-29T07:15:50.981Z,3.07
2022-10-29T07:18:19.098Z,2.13
2022-10-29T07:20:46.837Z,1.63
2022-10-29T07:23:15.088Z,1.40
2022-10-29T07:25:43.052Z,1.80
2022-10-29T07:28:16.880Z,2.17
2022-10-29T07:30:45.444Z,2.33
2022-10-29T07:33:13.868Z,2.73
2022-10-29T07:35:41.877Z,1.57
2022-10-29T07:38:11.728Z,3.40
2022-10-29T07:40:40.773Z,2.60
2022-10-29T07:43:10.080Z,5.40
2022-10-29T07:45:39.114Z,2.63
2022-10-29T07:48:08.520Z,3.13
2022-10-29T07:50:36.568Z,2.60
2022-10-29T07:53:05.839Z,3.43
2022-10-29T07:55:33.603Z,3.13
2022-10-29T07:58:03.295Z,2.00
2022-10-29T08:00:32.376Z,2.37
2022-10-29T08:03:01.362Z,2.77
2022-10-29T08:05:30.874Z,2.57
2022-10-29T08:07:59.941Z,2.67
2022-10-29T08:10:29.484Z,3.43
2022-10-29T08:12:59.321Z,3.13
2022-10-29T08:15:28.313Z,2.13
2022-10-29T08:17:56.415Z,2.43
2022-10-29T08:20:27.863Z,2.57
2022-10-29T08:22:56.085Z,3.90
2022-10-29T08:25:26.214Z,2.90
2022-10-29T08:28:00.803Z,4.17
2022-10-29T08:30:29.613Z,2.43
2022-10-29T08:32:57.829Z,3.20
2022-10-29T08:35:27.896Z,2.70
2022-10-29T08:37:55.827Z,4.13
2022-10-29T08:40:30.495Z,3.00
2022-10-29T08:43:40.991Z,2.70
2022-10-29T08:46:20.025Z,4.57
2022-10-29T08:48:53.065Z,2.57
2022-10-29T08:51:27.088Z,2.97
2022-10-29T08:56:49.796Z,2.93
2022-10-29T08:59:20.050Z,2.43
2022-10-29T09:01:48.412Z,3.37
2022-10-29T09:04:28.336Z,2.47
2022-10-29T09:07:14.942Z,2.60
2022-10-29T09:09:46.322Z,2.30
2022-10-29T09:12:30.915Z,2.43
2022-10-29T09:15:19.470Z,3.53
2022-10-29T09:17:54.225Z,2.43
2022-10-29T09:20:30.837Z,5.10
2022-10-29T09:23:10.399Z,4.07
2022-10-29T09:25:46.678Z,2.97
2022-10-29T09:28:29.190Z,3.30
2022-10-29T09:31:06.811Z,3.47
2022-10-29T09:33:34.609Z,2.90
2022-10-29T09:36:03.345Z,2.63
2022-10-29T09:38:35.707Z,3.80
2022-10-29T09:41:05.184Z,3.20
2022-10-29T09:43:40.991Z,4.27
2022-10-29T09:46:20.111Z,2.08
2022-10-29T09:49:00.705Z,2.17
2022-10-29T09:51:39.023Z,3.15
2022-10-29T09:54:08.687Z,3.92
2022-10-29T09:56:36.542Z,5.05
2022-10-29T09:59:13.076Z,2.58
2022-10-29T10:01:41.098Z,3.05
2022-10-29T10:04:16.637Z,2.83
2022-10-29T10:07:03.657Z,3.22
2022-10-29T10:09:51.909Z,1.90
2022-10-29T10:12:20.929Z,2.08
2022-10-29T10:14:49.352Z,3.00
2022-10-29T10:17:17.183Z,3.40
2022-10-29T10:19:49.121Z,2.25
2022-10-29T10:22:20.048Z,1.70
2022-10-29T10:24:49.417Z,4.25
2022-10-29T10:27:30.476Z,1.52
2022-10-29T10:30:13.863Z,2.83
2022-10-29T10:32:41.522Z,1.77
2022-10-29T10:35:30.058Z,4.65
2022-10-29T10:37:59.771Z,1.58
2022-10-29T10:40:30.249Z,3.22
2022-10-29T10:42:57.896Z,2.38
2022-10-29T10:45:29.034Z,1.92
2022-10-29T10:47:59.353Z,3.85
2022-10-29T10:50:30.289Z,2.92
2022-10-29T10:53:01.035Z,3.75
2022-10-29T10:55:34.260Z,2.90
2022-10-29T10:58:10.138Z,4.13
2022-10-29T11:00:45.090Z,3.42
2022-10-29T11:03:19.397Z,2.80
2022-10-29T11:05:56.208Z,3.33
2022-10-29T11:08:28.021Z,3.63
2022-10-29T11:11:03.021Z,5.32
2022-10-29T11:13:33.777Z,2.97
2022-10-29T11:16:09.284Z,3.28
2022-10-29T11:18:41.005Z,3.92
2022-10-29T11:21:15.589Z,2.90
2022-10-29T11:23:50.321Z,4.72
2022-10-29T11:26:28.179Z,2.63
2022-10-29T11:29:01.543Z,3.28
2022-10-29T11:31:38.548Z,2.90
2022-10-29T11:34:15.314Z,2.88
2022-10-29T11:36:50.035Z,3.10
2022-10-29T11:39:23.905Z,3.40
2022-10-29T11:41:58.557Z,3.85
2022-10-29T11:44:27.923Z,2.15
2022-10-29T11:47:11.169Z,4.53
2022-10-29T11:49:54.067Z,3.13
2022-10-29T11:52:34.763Z,3.03
2022-10-29T11:55:17.694Z,2.00
2022-10-29T11:57:54.861Z,2.60
2022-10-29T12:00:24.720Z,3.13
2022-10-29T12:03:17.911Z,2.55
2022-10-29T12:05:55.336Z,1.65
2022-10-29T12:08:38.676Z,2.75
2022-10-29T12:11:18.253Z,2.70
2022-10-29T12:13:58.785Z,2.67
2022-10-29T12:16:38.139Z,3.17
2022-10-29T12:19:14.886Z,2.30
2022-10-29T12:21:51.881Z,2.53
2022-10-29T12:24:50.751Z,3.95
2022-10-29T12:27:24.992Z,3.20
2022-10-29T12:29:59.932Z,2.53
2022-10-29T12:32:34.492Z,3.38
2022-10-29T12:35:12.613Z,2.50
2022-10-29T12:37:48.428Z,4.72
2022-10-29T12:40:20.756Z,2.65
2022-10-29T12:42:50.717Z,1.42
2022-10-29T12:45:34.759Z,2.45
2022-10-29T12:48:09.296Z,3.22
2022-10-29T12:50:47.650Z,2.65
2022-10-29T12:53:26.279Z,2.60
2022-10-29T12:55:54.507Z,2.35
2022-10-29T12:58:45.745Z,1.77
2022-10-29T13:02:10.424Z,2.63
2022-10-29T13:04:37.731Z,1.90
2022-10-29T13:07:23.673Z,3.05
2022-10-29T13:10:31.056Z,4.15
2022-10-29T13:13:02.963Z,2.42
2022-10-29T13:15:35.225Z,2.95
2022-10-29T13:18:10.265Z,4.72
2022-10-29T13:20:40.587Z,2.10
2022-10-29T13:23:35.227Z,3.88
2022-10-29T13:26:03.858Z,3.35
2022-10-29T13:28:52.941Z,2.90
2022-10-29T13:31:48.687Z,1.55
2022-10-29T13:34:56.314Z,1.77
2022-10-29T13:38:03.138Z,4.10
2022-10-29T13:41:01.163Z,3.00
2022-10-29T13:43:30.539Z,2.00
2022-10-29T13:46:43.964Z,3.38
2022-10-29T13:49:18.413Z,2.35
2022-10-29T13:51:52.998Z,2.25
2022-10-29T13:57:01.160Z,1.88
2022-10-29T13:59:41.445Z,3.65
2022-10-29T14:02:47.687Z,1.83
2022-10-29T14:05:20.054Z,2.63
2022-10-29T14:07:56.288Z,2.75
2022-10-29T14:10:27.829Z,3.65
2022-10-29T14:13:01.551Z,2.97
2022-10-29T14:15:29.241Z,2.70
2022-10-29T14:17:57.198Z,3.40
2022-10-29T14:20:27.635Z,3.83
2022-10-29T14:22:57.291Z,3.60
2022-10-29T14:25:31.264Z,3.10
2022-10-29T14:28:22.483Z,2.97
2022-10-29T14:31:01.124Z,1.60
2022-10-29T14:33:31.074Z,1.70
2022-10-29T14:36:06.487Z,3.45
2022-10-29T14:38:42.610Z,2.65
2022-10-29T14:41:11.285Z,2.58
2022-10-29T14:43:40.881Z,2.33
2022-10-29T14:46:18.266Z,2.53
2022-10-29T14:48:56.322Z,2.47
2022-10-29T14:51:24.536Z,1.77
2022-10-29T14:53:58.350Z,3.45
2022-10-29T14:56:33.364Z,2.03
2022-10-29T14:59:04.263Z,2.03
2022-10-29T15:01:32.186Z,1.85
2022-10-29T15:04:02.197Z,2.40
2022-10-29T15:06:30.649Z,2.45
2022-10-29T15:09:04.045Z,1.90
2022-10-29T15:11:37.698Z,2.40
2022-10-29T15:14:24.929Z,2.28
2022-10-29T15:16:52.876Z,2.97
2022-10-29T15:19:22.902Z,2.05
2022-10-29T15:21:50.860Z,1.60
2022-10-29T15:24:23.946Z,1.88
2022-10-29T15:26:53.909Z,1.73
2022-10-29T15:29:30.599Z,2.08
2022-10-29T15:32:01.297Z,2.22
2022-10-29T15:34:33.337Z,2.85
2022-10-29T15:37:20.724Z,2.97
2022-10-29T15:40:08.959Z,2.95
2022-10-29T15:42:37.677Z,3.08
2022-10-29T15:45:24.289Z,2.30
2022-10-29T15:47:57.045Z,4.20
2022-10-29T15:50:28.025Z,2.40
2022-10-29T15:52:59.284Z,2.43
2022-10-29T15:55:30.905Z,3.67
2022-10-29T15:58:03.840Z,3.10
2022-10-29T16:00:32.470Z,3.97
2022-10-29T16:03:07.385Z,4.70
2022-10-29T16:05:35.102Z,3.33
2022-10-29T16:08:04.084Z,3.77
2022-10-29T16:10:33.856Z,2.73
2022-10-29T16:13:01.845Z,5.07
2022-10-29T16:15:29.531Z,4.13
2022-10-29T16:17:57.467Z,6.10
2022-10-29T16:20:25.225Z,4.63
2022-10-29T16:22:53.235Z,4.47
2022-10-29T16:25:23.995Z,3.00
2022-10-29T16:27:53.285Z,4.83
2022-10-29T16:30:22.651Z,3.90
2022-10-29T16:32:50.968Z,2.70
2022-10-29T16:35:22.367Z,3.63
2022-10-29T16:37:51.221Z,3.37
2022-10-29T16:40:20.084Z,3.30
2022-10-29T16:42:48.680Z,2.80
2022-10-29T16:45:20.583Z,3.60
2022-10-29T16:47:48.849Z,2.03
2022-10-29T16:50:17.952Z,2.50
2022-10-29T16:52:46.343Z,3.67
2022-10-29T16:55:14.233Z,2.50
2022-10-29T16:57:42.667Z,4.90
2022-10-29T17:00:11.276Z,3.43
2022-10-29T17:02:42.566Z,4.67
2022-10-29T17:05:10.580Z,3.03
2022-10-29T17:07:39.443Z,3.90
2022-10-29T17:10:08.003Z,3.77
2022-10-29T17:12:37.124Z,6.17
2022-10-29T17:15:05.314Z,3.53
2022-10-29T17:17:33.028Z,4.07
2022-10-29T17:20:01.994Z,4.83
2022-10-29T17:22:30.299Z,4.20
2022-10-29T17:24:57.925Z,3.83
2022-10-29T17:27:26.272Z,5.60
2022-10-29T17:29:53.916Z,3.67
2022-10-29T17:32:21.875Z,4.70
2022-10-29T17:34:49.731Z,3.40
2022-10-29T17:37:19.388Z,4.40
2022-10-29T17:39:47.028Z,5.30
2022-10-29T17:42:14.947Z,6.83
2022-10-29T17:44:42.616Z,4.20
2022-10-29T17:47:11.362Z,6.70
2022-10-29T17:49:39.004Z,5.70
2022-10-29T17:52:07.153Z,4.93
2022-10-29T17:54:36.510Z,4.63
2022-10-29T17:57:04.281Z,6.70
2022-10-29T17:59:31.928Z,6.23
2022-10-29T18:01:59.651Z,4.70
2022-10-29T18:04:28.298Z,7.70
2022-10-29T18:06:56.979Z,5.90
2022-10-29T18:09:24.931Z,6.53
2022-10-29T18:11:53.887Z,6.63
2022-10-29T18:14:21.809Z,6.27
2022-10-29T18:16:49.436Z,6.83
2022-10-29T18:19:17.539Z,5.30
2022-10-29T18:21:45.221Z,4.90
2022-10-29T18:24:13.479Z,3.67
2022-10-29T18:26:41.664Z,5.13
2022-10-29T18:29:13.343Z,4.73
2022-10-29T18:31:44.833Z,4.53
2022-10-29T18:34:14.673Z,4.37
2022-10-29T18:36:42.922Z,10.57
2022-10-29T18:39:10.936Z,7.10
2022-10-29T18:41:39.472Z,7.13
2022-10-29T18:44:07.848Z,8.47
2022-10-29T18:46:36.837Z,5.87
2022-10-29T18:49:04.501Z,6.37
2022-10-29T18:51:33.589Z,5.40
2022-10-29T18:54:01.933Z,5.07
2022-10-29T18:56:31.092Z,4.77
2022-10-29T18:59:00.274Z,4.10
2022-10-29T19:01:30.369Z,5.37
2022-10-29T19:04:01.433Z,6.10
2022-10-29T19:06:31.446Z,5.23
2022-10-29T19:09:03.294Z,5.63
2022-10-29T19:11:30.973Z,4.77
2022-10-29T19:14:00.627Z,5.60
2022-10-29T19:16:29.146Z,4.13
2022-10-29T19:18:59.783Z,6.83
2022-10-29T19:21:28.307Z,5.37
2022-10-29T19:23:56.944Z,5.00
2022-10-29T19:26:26.034Z,6.30
2022-10-29T19:28:54.409Z,5.47
2022-10-29T19:31:23.989Z,5.03
2022-10-29T19:33:53.710Z,5.00
2022-10-29T19:36:23.973Z,6.30
2022-10-29T19:38:52.147Z,6.53
2022-10-29T19:41:20.323Z,6.83
2022-10-29T19:43:48.493Z,6.47
2022-10-29T19:46:18.051Z,7.47
2022-10-29T19:51:40.354Z,6.17
2022-10-29T19:54:08.464Z,6.40
2022-10-29T19:56:36.128Z,6.90
2022-10-29T19:59:04.637Z,7.57
2022-10-29T20:01:32.519Z,6.90
2022-10-29T20:04:00.761Z,8.40
2022-10-29T20:06:28.431Z,8.67
2022-10-29T20:08:57.610Z,9.17
2022-10-29T20:11:25.258Z,7.43
2022-10-29T20:13:52.994Z,7.20
2022-10-29T20:16:22.203Z,5.00
2022-10-29T20:18:51.181Z,3.67
2022-10-29T20:21:18.933Z,4.67
2022-10-29T20:23:47.458Z,4.57
2022-10-29T20:26:16.649Z,5.00
2022-10-29T20:28:44.772Z,5.33
2022-10-29T20:31:30.147Z,5.20
2022-10-29T20:34:00.665Z,7.83
2022-10-29T20:36:30.836Z,5.33
2022-10-29T20:38:59.491Z,7.13
2022-10-29T20:41:29.248Z,6.17
2022-10-29T20:43:59.356Z,6.23
2022-10-29T20:46:27.401Z,6.80
2022-10-29T20:48:55.095Z,5.83
2022-10-29T20:51:23.503Z,6.00
2022-10-29T20:53:52.295Z,4.87
2022-10-29T20:56:20.521Z,6.77
2022-10-29T20:58:49.565Z,5.10
2022-10-29T21:01:19.822Z,8.20
2022-10-29T21:03:49.906Z,5.03
2022-10-29T21:06:18.458Z,6.87
2022-10-29T21:08:46.691Z,5.33
2022-10-29T21:11:15.740Z,5.87
2022-10-29T21:13:43.770Z,4.90
2022-10-29T21:16:17.783Z,5.97
2022-10-29T21:18:46.964Z,4.60
2022-10-29T21:21:15.573Z,5.27
2022-10-29T21:23:43.755Z,4.57
2022-10-29T21:26:15.537Z,4.73
2022-10-29T21:28:43.215Z,4.67
2022-10-29T21:31:11.176Z,4.70
2022-10-29T21:33:40.428Z,3.50
2022-10-29T21:36:09.001Z,4.00
2022-10-29T21:38:36.701Z,3.60
2022-10-29T21:41:04.386Z,4.00
2022-10-29T21:43:32.267Z,4.10
2022-10-29T21:45:59.946Z,5.00
2022-10-29T21:48:28.663Z,4.47
2022-10-29T21:51:03.225Z,4.40
2022-10-29T21:53:31.078Z,4.30
2022-10-29T21:55:59.523Z,4.80
2022-10-29T21:58:27.566Z,5.20
2022-10-29T22:01:03.984Z,4.90
2022-10-29T22:03:32.509Z,6.10
2022-10-29T22:06:11.285Z,4.60
2022-10-29T22:08:39.651Z,6.73
2022-10-29T22:11:08.152Z,5.27
2022-10-29T22:13:36.731Z,6.80
2022-10-29T22:16:05.981Z,6.30
2022-10-29T22:18:34.743Z,4.47
2022-10-29T22:21:09.130Z,6.37
2022-10-29T22:23:38.156Z,4.60
2022-10-29T22:26:06.270Z,4.80
2022-10-29T22:28:33.897Z,5.07
2022-10-29T22:31:03.228Z,4.40
2022-10-29T22:33:32.708Z,3.57
2022-10-29T22:36:07.920Z,3.20
2022-10-29T22:38:35.581Z,4.53
2022-10-29T22:41:07.756Z,3.37
2022-10-29T22:43:35.956Z,3.03
2022-10-29T22:46:05.337Z,4.37
2022-10-29T22:48:33.589Z,3.07
2022-10-29T22:51:03.259Z,3.63
2022-10-29T22:53:32.999Z,5.63
2022-10-29T22:56:01.462Z,4.13
2022-10-29T22:58:29.448Z,5.83
2022-10-29T23:01:05.330Z,4.27
2022-10-29T23:03:33.456Z,3.90
2022-10-29T23:06:03.140Z,6.17
2022-10-29T23:08:32.274Z,3.50
2022-10-29T23:11:00.465Z,4.23
2022-10-29T23:13:28.103Z,4.30
2022-10-29T23:15:56.122Z,3.97
2022-10-29T23:18:23.777Z,4.53
2022-10-29T23:20:59.038Z,3.60
2022-10-29T23:23:26.709Z,3.47
2022-10-29T23:26:00.921Z,3.73
2022-10-29T23:28:29.212Z,4.83
2022-10-29T23:30:58.228Z,4.50
2022-10-29T23:33:25.951Z,2.33
2022-10-29T23:35:53.801Z,5.70
2022-10-29T23:38:21.572Z,5.97
2022-10-29T23:40:50.013Z,3.43
2022-10-29T23:43:19.005Z,5.10
2022-10-29T23:45:47.185Z,4.93
2022-10-29T23:48:14.844Z,3.83
2022-10-29T23:50:42.666Z,3.50
2022-10-29T23:53:10.855Z,3.77
2022-10-29T23:55:39.149Z,3.23
2022-10-29T23:58:06.799Z,3.80
